sensor_id;sensor_type;location;lat;lon;timestamp;pressure;altitude;pressure_sealevel;temperature;humidity
32747;BME280;19118;50.860;13.662;2023-04-08T00:03:49;97149.81;;;1.91;100.00
32747;BME280;19118;50.860;13.662;2023-04-08T00:08:49;97148.91;;;1.83;100.00
32747;BME280;19118;50.860;13.662;2023-04-08T00:13:50;97158.63;;;1.90;100.00
32747;BME280;19118;50.860;13.662;2023-04-08T00:18:50;97154.78;;;1.94;100.00
32747;BME280;19118;50.860;13.662;2023-04-08T00:23:51;97150.75;;;2.10;100.00
32747;BME280;19118;50.860;13.662;2023-04-08T00:28:51;97151.72;;;2.09;100.00
32747;BME280;19118;50.860;13.662;2023-04-08T00:33:51;97150.31;;;2.24;100.00
32747;BME280;19118;50.860;13.662;2023-04-08T00:38:52;97160.75;;;2.14;100.00
32747;BME280;19118;50.860;13.662;2023-04-08T00:43:53;97169.97;;;2.18;100.00
32747;BME280;19118;50.860;13.662;2023-04-08T00:48:53;97161.31;;;2.18;100.00
32747;BME280;19118;50.860;13.662;2023-04-08T00:53:54;97153.34;;;2.29;100.00
32747;BME280;19118;50.860;13.662;2023-04-08T00:58:55;97158.56;;;2.29;100.00
32747;BME280;19118;50.860;13.662;2023-04-08T01:04:06;97152.47;;;2.38;100.00
32747;BME280;19118;50.860;13.662;2023-04-08T01:09:09;97157.69;;;2.38;100.00
32747;BME280;19118;50.860;13.662;2023-04-08T01:14:14;97157.41;;;2.41;100.00
32747;BME280;19118;50.860;13.662;2023-04-08T01:19:23;97157.28;;;2.33;100.00
32747;BME280;19118;50.860;13.662;2023-04-08T01:24:28;97164.28;;;2.42;100.00
32747;BME280;19118;50.860;13.662;2023-04-08T01:29:30;97147.66;;;2.33;100.00
32747;BME280;19118;50.860;13.662;2023-04-08T01:34:33;97149.97;;;2.46;100.00
32747;BME280;19118;50.860;13.662;2023-04-08T01:39:34;97147.34;;;2.46;100.00
32747;BME280;19118;50.860;13.662;2023-04-08T01:44:35;97148.53;;;2.61;100.00
32747;BME280;19118;50.860;13.662;2023-04-08T01:49:37;97151.53;;;2.67;100.00
32747;BME280;19118;50.860;13.662;2023-04-08T01:54:38;97147.84;;;2.59;100.00
32747;BME280;19118;50.860;13.662;2023-04-08T01:59:39;97154.00;;;2.68;100.00
32747;BME280;19118;50.860;13.662;2023-04-08T02:04:41;97151.53;;;2.67;100.00
32747;BME280;19118;50.860;13.662;2023-04-08T02:09:41;97147.28;;;2.66;100.00
32747;BME280;19118;50.860;13.662;2023-04-08T02:14:41;97140.72;;;2.61;100.00
32747;BME280;19118;50.860;13.662;2023-04-08T02:24:43;97162.16;;;2.55;100.00
32747;BME280;19118;50.860;13.662;2023-04-08T02:29:44;97160.41;;;2.46;100.00
32747;BME280;19118;50.860;13.662;2023-04-08T02:34:46;97156.81;;;2.47;100.00
32747;BME280;19118;50.860;13.662;2023-04-08T02:39:47;97165.34;;;2.49;100.00
32747;BME280;19118;50.860;13.662;2023-04-08T02:44:48;97173.03;;;2.51;100.00
32747;BME280;19118;50.860;13.662;2023-04-08T02:49:48;97174.25;;;2.56;100.00
32747;BME280;19118;50.860;13.662;2023-04-08T02:54:52;97179.41;;;2.76;100.00
32747;BME280;19118;50.860;13.662;2023-04-08T02:59:52;97180.91;;;2.69;100.00
32747;BME280;19118;50.860;13.662;2023-04-08T03:04:52;97178.72;;;2.74;100.00
32747;BME280;19118;50.860;13.662;2023-04-08T03:09:53;97176.34;;;2.80;100.00
32747;BME280;19118;50.860;13.662;2023-04-08T03:14:54;97186.50;;;2.83;100.00
32747;BME280;19118;50.860;13.662;2023-04-08T03:19:55;97178.13;;;2.80;100.00
32747;BME280;19118;50.860;13.662;2023-04-08T03:24:55;97175.22;;;2.83;100.00
32747;BME280;19118;50.860;13.662;2023-04-08T03:29:55;97170.09;;;2.91;100.00
32747;BME280;19118;50.860;13.662;2023-04-08T03:34:57;97172.34;;;2.86;100.00
32747;BME280;19118;50.860;13.662;2023-04-08T03:39:57;97164.34;;;2.87;100.00
32747;BME280;19118;50.860;13.662;2023-04-08T03:44:57;97166.56;;;2.82;100.00
32747;BME280;19118;50.860;13.662;2023-04-08T03:49:58;97159.69;;;2.81;100.00
32747;BME280;19118;50.860;13.662;2023-04-08T03:54:58;97163.84;;;2.84;100.00
32747;BME280;19118;50.860;13.662;2023-04-08T03:59:58;97174.53;;;2.81;100.00
32747;BME280;19118;50.860;13.662;2023-04-08T04:04:59;97171.25;;;2.79;100.00
32747;BME280;19118;50.860;13.662;2023-04-08T04:09:59;97184.16;;;2.80;100.00
32747;BME280;19118;50.860;13.662;2023-04-08T04:14:59;97183.06;;;2.83;100.00
32747;BME280;19118;50.860;13.662;2023-04-08T04:20:03;97194.91;;;2.77;100.00
32747;BME280;19118;50.860;13.662;2023-04-08T04:25:03;97189.94;;;2.84;100.00
32747;BME280;19118;50.860;13.662;2023-04-08T04:30:04;97197.66;;;2.76;100.00
32747;BME280;19118;50.860;13.662;2023-04-08T04:35:05;97199.97;;;2.79;100.00
32747;BME280;19118;50.860;13.662;2023-04-08T04:40:05;97200.66;;;2.81;100.00
32747;BME280;19118;50.860;13.662;2023-04-08T04:45:07;97210.84;;;2.84;100.00
32747;BME280;19118;50.860;13.662;2023-04-08T04:50:08;97205.47;;;2.85;100.00
32747;BME280;19118;50.860;13.662;2023-04-08T04:55:09;97205.31;;;2.87;100.00
32747;BME280;19118;50.860;13.662;2023-04-08T05:00:09;97217.13;;;2.91;100.00
32747;BME280;19118;50.860;13.662;2023-04-08T05:05:10;97224.56;;;2.86;100.00
32747;BME280;19118;50.860;13.662;2023-04-08T05:10:10;97221.00;;;2.87;100.00
32747;BME280;19118;50.860;13.662;2023-04-08T05:15:11;97228.94;;;2.95;100.00
32747;BME280;19118;50.860;13.662;2023-04-08T05:20:11;97227.97;;;2.96;100.00
32747;BME280;19118;50.860;13.662;2023-04-08T05:25:12;97230.84;;;2.93;100.00
32747;BME280;19118;50.860;13.662;2023-04-08T05:30:12;97236.59;;;3.06;100.00
32747;BME280;19118;50.860;13.662;2023-04-08T05:35:13;97236.19;;;3.01;100.00
32747;BME280;19118;50.860;13.662;2023-04-08T05:40:13;97232.91;;;2.99;100.00
32747;BME280;19118;50.860;13.662;2023-04-08T05:45:13;97246.34;;;3.04;100.00
32747;BME280;19118;50.860;13.662;2023-04-08T05:50:15;97243.81;;;3.12;100.00
32747;BME280;19118;50.860;13.662;2023-04-08T05:55:15;97240.09;;;3.15;100.00
32747;BME280;19118;50.860;13.662;2023-04-08T06:00:16;97246.63;;;3.01;100.00
32747;BME280;19118;50.860;13.662;2023-04-08T06:05:16;97250.03;;;3.11;100.00
32747;BME280;19118;50.860;13.662;2023-04-08T06:10:18;97271.19;;;3.18;100.00
32747;BME280;19118;50.860;13.662;2023-04-08T06:15:18;97256.31;;;3.18;100.00
32747;BME280;19118;50.860;13.662;2023-04-08T06:20:18;97261.72;;;3.35;100.00
32747;BME280;19118;50.860;13.662;2023-04-08T06:25:19;97265.28;;;3.43;100.00
32747;BME280;19118;50.860;13.662;2023-04-08T06:30:19;97278.13;;;3.55;100.00
32747;BME280;19118;50.860;13.662;2023-04-08T06:35:21;97287.41;;;3.67;100.00
32747;BME280;19118;50.860;13.662;2023-04-08T06:40:21;97279.53;;;3.76;100.00
32747;BME280;19118;50.860;13.662;2023-04-08T06:45:21;97284.09;;;3.74;100.00
32747;BME280;19118;50.860;13.662;2023-04-08T06:50:22;97290.59;;;3.88;100.00
32747;BME280;19118;50.860;13.662;2023-04-08T06:55:22;97289.16;;;3.94;100.00
32747;BME280;19118;50.860;13.662;2023-04-08T07:00:22;97297.84;;;4.12;100.00
32747;BME280;19118;50.860;13.662;2023-04-08T07:05:23;97297.19;;;4.10;100.00
32747;BME280;19118;50.860;13.662;2023-04-08T07:10:23;97309.41;;;3.92;100.00
32747;BME280;19118;50.860;13.662;2023-04-08T07:15:23;97322.38;;;4.11;100.00
32747;BME280;19118;50.860;13.662;2023-04-08T07:20:24;97316.75;;;4.24;100.00
32747;BME280;19118;50.860;13.662;2023-04-08T07:25:25;97322.50;;;4.27;100.00
32747;BME280;19118;50.860;13.662;2023-04-08T07:30:25;97318.34;;;4.34;100.00
32747;BME280;19118;50.860;13.662;2023-04-08T07:35:25;97320.88;;;4.26;100.00
32747;BME280;19118;50.860;13.662;2023-04-08T07:40:27;97319.22;;;4.25;100.00
32747;BME280;19118;50.860;13.662;2023-04-08T07:45:27;97321.75;;;4.53;100.00
32747;BME280;19118;50.860;13.662;2023-04-08T07:50:27;97324.75;;;4.58;100.00
32747;BME280;19118;50.860;13.662;2023-04-08T07:55:32;97315.81;;;4.94;100.00
32747;BME280;19118;50.860;13.662;2023-04-08T08:00:32;97300.84;;;4.79;100.00
32747;BME280;19118;50.860;13.662;2023-04-08T08:05:34;97297.59;;;4.85;100.00
32747;BME280;19118;50.860;13.662;2023-04-08T08:10:35;97290.53;;;5.45;100.00
32747;BME280;19118;50.860;13.662;2023-04-08T08:15:35;97283.41;;;5.30;100.00
32747;BME280;19118;50.860;13.662;2023-04-08T08:20:35;97273.25;;;5.26;100.00
32747;BME280;19118;50.860;13.662;2023-04-08T08:25:36;97270.03;;;5.07;100.00
32747;BME280;19118;50.860;13.662;2023-04-08T08:30:36;97261.94;;;5.26;100.00
32747;BME280;19118;50.860;13.662;2023-04-08T08:35:37;97253.72;;;5.21;100.00
32747;BME280;19118;50.860;13.662;2023-04-08T08:40:38;97258.22;;;5.03;100.00
32747;BME280;19118;50.860;13.662;2023-04-08T08:45:41;97257.28;;;5.12;100.00
32747;BME280;19118;50.860;13.662;2023-04-08T08:50:43;97261.28;;;5.32;100.00
32747;BME280;19118;50.860;13.662;2023-04-08T08:55:43;97272.22;;;5.62;100.00
32747;BME280;19118;50.860;13.662;2023-04-08T09:00:44;97266.75;;;5.97;100.00
32747;BME280;19118;50.860;13.662;2023-04-08T09:05:55;97287.94;;;6.04;100.00
32747;BME280;19118;50.860;13.662;2023-04-08T09:11:14;97299.09;;;6.06;100.00
32747;BME280;19118;50.860;13.662;2023-04-08T09:16:16;97312.38;;;5.62;100.00
32747;BME280;19118;50.860;13.662;2023-04-08T09:21:21;97317.78;;;6.03;100.00
32747;BME280;19118;50.860;13.662;2023-04-08T09:26:23;97322.13;;;6.61;100.00
32747;BME280;19118;50.860;13.662;2023-04-08T09:31:26;97324.56;;;6.95;100.00
32747;BME280;19118;50.860;13.662;2023-04-08T09:36:27;97335.50;;;7.23;100.00
32747;BME280;19118;50.860;13.662;2023-04-08T09:41:27;97347.06;;;7.06;100.00
32747;BME280;19118;50.860;13.662;2023-04-08T09:46:32;97347.41;;;6.86;100.00
32747;BME280;19118;50.860;13.662;2023-04-08T09:51:58;97349.69;;;6.89;100.00
32747;BME280;19118;50.860;13.662;2023-04-08T09:57:04;97361.97;;;7.29;100.00
32747;BME280;19118;50.860;13.662;2023-04-08T10:02:09;97369.69;;;7.31;100.00
32747;BME280;19118;50.860;13.662;2023-04-08T10:07:12;97371.78;;;7.52;100.00
32747;BME280;19118;50.860;13.662;2023-04-08T10:12:13;97379.91;;;7.26;100.00
32747;BME280;19118;50.860;13.662;2023-04-08T10:17:26;97383.06;;;6.81;100.00
32747;BME280;19118;50.860;13.662;2023-04-08T10:27:38;97370.84;;;7.37;100.00
32747;BME280;19118;50.860;13.662;2023-04-08T10:32:40;97384.03;;;7.76;100.00
32747;BME280;19118;50.860;13.662;2023-04-08T10:37:41;97392.97;;;8.06;100.00
32747;BME280;19118;50.860;13.662;2023-04-08T10:42:41;97384.19;;;8.13;100.00
32747;BME280;19118;50.860;13.662;2023-04-08T10:47:42;97392.25;;;8.20;100.00
32747;BME280;19118;50.860;13.662;2023-04-08T10:52:49;97400.25;;;7.48;100.00
32747;BME280;19118;50.860;13.662;2023-04-08T10:57:51;97390.84;;;7.46;100.00
32747;BME280;19118;50.860;13.662;2023-04-08T11:02:52;97394.38;;;7.77;100.00
32747;BME280;19118;50.860;13.662;2023-04-08T11:07:52;97389.19;;;8.00;100.00
32747;BME280;19118;50.860;13.662;2023-04-08T11:12:53;97393.22;;;8.19;100.00
32747;BME280;19118;50.860;13.662;2023-04-08T11:17:54;97401.09;;;7.88;100.00
32747;BME280;19118;50.860;13.662;2023-04-08T11:22:54;97408.41;;;8.17;100.00
32747;BME280;19118;50.860;13.662;2023-04-08T11:27:54;97416.56;;;7.91;100.00
32747;BME280;19118;50.860;13.662;2023-04-08T11:32:55;97414.31;;;8.19;100.00
32747;BME280;19118;50.860;13.662;2023-04-08T11:37:57;97420.06;;;8.14;100.00
32747;BME280;19118;50.860;13.662;2023-04-08T11:42:57;97425.16;;;7.85;100.00
32747;BME280;19118;50.860;13.662;2023-04-08T11:47:58;97433.63;;;7.48;100.00
32747;BME280;19118;50.860;13.662;2023-04-08T11:52:58;97433.16;;;6.95;100.00
32747;BME280;19118;50.860;13.662;2023-04-08T11:58:03;97420.50;;;6.99;100.00
32747;BME280;19118;50.860;13.662;2023-04-08T12:03:05;97421.47;;;7.39;100.00
32747;BME280;19118;50.860;13.662;2023-04-08T12:08:05;97424.41;;;7.36;100.00
32747;BME280;19118;50.860;13.662;2023-04-08T12:13:06;97433.81;;;7.30;100.00
32747;BME280;19118;50.860;13.662;2023-04-08T12:18:06;97417.22;;;6.97;100.00
32747;BME280;19118;50.860;13.662;2023-04-08T12:23:06;97423.63;;;6.94;100.00
32747;BME280;19118;50.860;13.662;2023-04-08T12:28:07;97435.97;;;6.94;100.00
32747;BME280;19118;50.860;13.662;2023-04-08T12:33:09;97432.34;;;7.03;100.00
32747;BME280;19118;50.860;13.662;2023-04-08T12:38:09;97436.06;;;7.57;100.00
32747;BME280;19118;50.860;13.662;2023-04-08T12:43:09;97446.84;;;7.87;100.00
32747;BME280;19118;50.860;13.662;2023-04-08T12:48:10;97444.75;;;7.74;100.00
32747;BME280;19118;50.860;13.662;2023-04-08T12:53:10;97443.91;;;7.82;100.00
32747;BME280;19118;50.860;13.662;2023-04-08T12:58:10;97448.44;;;6.84;100.00
32747;BME280;19118;50.860;13.662;2023-04-08T13:03:11;97453.84;;;6.74;100.00
32747;BME280;19118;50.860;13.662;2023-04-08T13:08:13;97441.22;;;7.10;100.00
32747;BME280;19118;50.860;13.662;2023-04-08T13:13:13;97440.06;;;6.96;100.00
32747;BME280;19118;50.860;13.662;2023-04-08T13:18:13;97448.75;;;7.13;100.00
32747;BME280;19118;50.860;13.662;2023-04-08T13:23:14;97457.63;;;7.45;100.00
32747;BME280;19118;50.860;13.662;2023-04-08T13:28:16;97454.31;;;8.62;100.00
32747;BME280;19118;50.860;13.662;2023-04-08T13:33:17;97466.91;;;8.43;100.00
32747;BME280;19118;50.860;13.662;2023-04-08T13:38:17;97468.84;;;7.39;100.00
32747;BME280;19118;50.860;13.662;2023-04-08T13:43:18;97468.94;;;7.70;100.00
32747;BME280;19118;50.860;13.662;2023-04-08T13:48:18;97459.41;;;7.69;100.00
32747;BME280;19118;50.860;13.662;2023-04-08T13:53:18;97469.84;;;8.01;100.00
32747;BME280;19118;50.860;13.662;2023-04-08T13:58:19;97472.00;;;7.98;100.00
32747;BME280;19118;50.860;13.662;2023-04-08T14:03:20;97478.53;;;7.22;100.00
32747;BME280;19118;50.860;13.662;2023-04-08T14:08:21;97482.91;;;6.72;100.00
32747;BME280;19118;50.860;13.662;2023-04-08T14:13:24;97484.44;;;6.25;100.00
32747;BME280;19118;50.860;13.662;2023-04-08T14:18:24;97498.19;;;6.19;100.00
32747;BME280;19118;50.860;13.662;2023-04-08T14:23:25;97496.25;;;6.29;100.00
32747;BME280;19118;50.860;13.662;2023-04-08T14:28:25;97495.59;;;5.93;100.00
32747;BME280;19118;50.860;13.662;2023-04-08T14:33:26;97500.31;;;5.89;100.00
32747;BME280;19118;50.860;13.662;2023-04-08T14:38:26;97502.69;;;6.00;100.00
32747;BME280;19118;50.860;13.662;2023-04-08T14:43:26;97499.88;;;5.94;100.00
32747;BME280;19118;50.860;13.662;2023-04-08T14:48:27;97502.38;;;6.03;100.00
32747;BME280;19118;50.860;13.662;2023-04-08T14:53:29;97503.47;;;5.93;100.00
32747;BME280;19118;50.860;13.662;2023-04-08T14:58:30;97503.19;;;5.78;100.00
32747;BME280;19118;50.860;13.662;2023-04-08T15:03:30;97502.66;;;5.74;100.00
32747;BME280;19118;50.860;13.662;2023-04-08T15:08:30;97506.38;;;5.64;100.00
32747;BME280;19118;50.860;13.662;2023-04-08T15:13:31;97514.06;;;5.65;100.00
32747;BME280;19118;50.860;13.662;2023-04-08T15:18:31;97515.53;;;5.60;100.00
32747;BME280;19118;50.860;13.662;2023-04-08T15:23:32;97509.72;;;5.74;100.00
32747;BME280;19118;50.860;13.662;2023-04-08T15:28:32;97522.00;;;5.73;100.00
32747;BME280;19118;50.860;13.662;2023-04-08T15:33:32;97523.06;;;5.80;100.00
32747;BME280;19118;50.860;13.662;2023-04-08T15:38:33;97533.84;;;5.77;100.00
32747;BME280;19118;50.860;13.662;2023-04-08T15:43:33;97530.34;;;5.69;100.00
32747;BME280;19118;50.860;13.662;2023-04-08T15:48:33;97538.41;;;5.75;100.00
32747;BME280;19118;50.860;13.662;2023-04-08T15:53:34;97539.97;;;5.86;100.00
32747;BME280;19118;50.860;13.662;2023-04-08T15:58:34;97536.78;;;5.92;100.00
32747;BME280;19118;50.860;13.662;2023-04-08T16:03:35;97547.34;;;5.82;100.00
32747;BME280;19118;50.860;13.662;2023-04-08T16:08:36;97556.16;;;5.55;100.00
32747;BME280;19118;50.860;13.662;2023-04-08T16:13:36;97560.72;;;5.53;100.00
32747;BME280;19118;50.860;13.662;2023-04-08T16:18:39;97563.13;;;5.29;100.00
32747;BME280;19118;50.860;13.662;2023-04-08T16:23:41;97566.66;;;5.20;100.00
32747;BME280;19118;50.860;13.662;2023-04-08T16:28:41;97571.00;;;5.29;100.00
32747;BME280;19118;50.860;13.662;2023-04-08T16:33:42;97570.25;;;5.19;100.00
32747;BME280;19118;50.860;13.662;2023-04-08T16:38:43;97573.25;;;5.06;100.00
32747;BME280;19118;50.860;13.662;2023-04-08T16:43:43;97573.09;;;5.08;100.00
32747;BME280;19118;50.860;13.662;2023-04-08T16:48:43;97577.91;;;5.12;100.00
32747;BME280;19118;50.860;13.662;2023-04-08T16:53:44;97575.50;;;5.01;100.00
32747;BME280;19118;50.860;13.662;2023-04-08T16:58:44;97580.13;;;4.89;100.00
32747;BME280;19118;50.860;13.662;2023-04-08T17:03:44;97585.53;;;4.88;100.00
32747;BME280;19118;50.860;13.662;2023-04-08T17:08:46;97593.22;;;4.89;100.00
32747;BME280;19118;50.860;13.662;2023-04-08T17:13:47;97589.38;;;4.66;100.00
32747;BME280;19118;50.860;13.662;2023-04-08T17:18:48;97595.66;;;4.73;100.00
32747;BME280;19118;50.860;13.662;2023-04-08T17:23:50;97592.75;;;4.49;100.00
32747;BME280;19118;50.860;13.662;2023-04-08T17:28:51;97596.06;;;4.41;100.00
32747;BME280;19118;50.860;13.662;2023-04-08T17:33:51;97600.41;;;4.32;100.00
32747;BME280;19118;50.860;13.662;2023-04-08T17:38:51;97596.13;;;4.31;100.00
32747;BME280;19118;50.860;13.662;2023-04-08T17:43:52;97608.56;;;4.20;100.00
32747;BME280;19118;50.860;13.662;2023-04-08T17:48:52;97614.50;;;4.12;100.00
32747;BME280;19118;50.860;13.662;2023-04-08T17:53:52;97613.84;;;4.10;100.00
32747;BME280;19118;50.860;13.662;2023-04-08T17:58:53;97621.81;;;4.08;100.00
32747;BME280;19118;50.860;13.662;2023-04-08T18:03:53;97628.72;;;4.00;100.00
32747;BME280;19118;50.860;13.662;2023-04-08T18:08:53;97632.69;;;4.04;100.00
32747;BME280;19118;50.860;13.662;2023-04-08T18:13:54;97643.47;;;4.01;100.00
32747;BME280;19118;50.860;13.662;2023-04-08T18:18:54;97647.19;;;3.89;100.00
32747;BME280;19118;50.860;13.662;2023-04-08T18:23:54;97650.63;;;3.70;100.00
32747;BME280;19118;50.860;13.662;2023-04-08T18:28:55;97653.00;;;3.54;100.00
32747;BME280;19118;50.860;13.662;2023-04-08T18:33:55;97660.94;;;3.23;100.00
32747;BME280;19118;50.860;13.662;2023-04-08T18:38:56;97663.16;;;3.18;100.00
32747;BME280;19118;50.860;13.662;2023-04-08T18:43:56;97670.31;;;3.35;100.00
32747;BME280;19118;50.860;13.662;2023-04-08T18:48:57;97669.50;;;3.54;100.00
32747;BME280;19118;50.860;13.662;2023-04-08T18:53:58;97673.09;;;3.53;100.00
32747;BME280;19118;50.860;13.662;2023-04-08T18:58:58;97686.84;;;3.55;100.00
32747;BME280;19118;50.860;13.662;2023-04-08T19:03:58;97691.78;;;3.58;100.00
32747;BME280;19118;50.860;13.662;2023-04-08T19:08:59;97690.69;;;3.61;100.00
32747;BME280;19118;50.860;13.662;2023-04-08T19:13:59;97691.13;;;3.66;100.00
32747;BME280;19118;50.860;13.662;2023-04-08T19:18:59;97695.66;;;3.64;100.00
32747;BME280;19118;50.860;13.662;2023-04-08T19:24:00;97691.78;;;3.58;100.00
32747;BME280;19118;50.860;13.662;2023-04-08T19:29:00;97691.50;;;3.42;100.00
32747;BME280;19118;50.860;13.662;2023-04-08T19:34:01;97690.41;;;3.35;100.00
32747;BME280;19118;50.860;13.662;2023-04-08T19:39:01;97690.34;;;3.15;100.00
32747;BME280;19118;50.860;13.662;2023-04-08T19:44:02;97688.44;;;2.77;100.00
32747;BME280;19118;50.860;13.662;2023-04-08T19:49:03;97696.94;;;2.39;100.00
32747;BME280;19118;50.860;13.662;2023-04-08T19:54:03;97702.50;;;2.04;100.00
32747;BME280;19118;50.860;13.662;2023-04-08T19:59:04;97703.22;;;1.74;100.00
32747;BME280;19118;50.860;13.662;2023-04-08T20:04:04;97709.72;;;1.48;100.00
32747;BME280;19118;50.860;13.662;2023-04-08T20:09:04;97727.06;;;1.26;100.00
32747;BME280;19118;50.860;13.662;2023-04-08T20:14:05;97723.28;;;1.08;100.00
32747;BME280;19118;50.860;13.662;2023-04-08T20:19:05;97720.25;;;0.92;100.00
32747;BME280;19118;50.860;13.662;2023-04-08T20:24:06;97733.25;;;0.69;100.00
32747;BME280;19118;50.860;13.662;2023-04-08T20:29:06;97727.56;;;0.64;100.00
32747;BME280;19118;50.860;13.662;2023-04-08T20:34:06;97726.41;;;0.57;100.00
32747;BME280;19118;50.860;13.662;2023-04-08T20:39:10;97724.50;;;0.48;100.00
32747;BME280;19118;50.860;13.662;2023-04-08T20:44:11;97729.88;;;0.22;100.00
32747;BME280;19118;50.860;13.662;2023-04-08T20:49:11;97724.84;;;-0.03;100.00
32747;BME280;19118;50.860;13.662;2023-04-08T20:54:12;97718.63;;;-0.24;100.00
32747;BME280;19118;50.860;13.662;2023-04-08T20:59:12;97715.50;;;-0.41;100.00
32747;BME280;19118;50.860;13.662;2023-04-08T21:04:13;97723.47;;;-0.55;100.00
32747;BME280;19118;50.860;13.662;2023-04-08T21:09:13;97730.97;;;-0.63;100.00
32747;BME280;19118;50.860;13.662;2023-04-08T21:14:14;97750.50;;;-0.70;100.00
32747;BME280;19118;50.860;13.662;2023-04-08T21:19:14;97758.69;;;-0.88;100.00
32747;BME280;19118;50.860;13.662;2023-04-08T21:24:14;97747.06;;;-0.95;100.00
32747;BME280;19118;50.860;13.662;2023-04-08T21:29:15;97760.97;;;-0.96;100.00
32747;BME280;19118;50.860;13.662;2023-04-08T21:34:15;97771.13;;;-0.93;100.00
32747;BME280;19118;50.860;13.662;2023-04-08T21:39:15;97775.53;;;-1.06;100.00
32747;BME280;19118;50.860;13.662;2023-04-08T21:44:16;97773.38;;;-1.12;100.00
32747;BME280;19118;50.860;13.662;2023-04-08T21:49:16;97769.84;;;-1.24;100.00
32747;BME280;19118;50.860;13.662;2023-04-08T21:54:17;97771.41;;;-1.21;100.00
32747;BME280;19118;50.860;13.662;2023-04-08T21:59:17;97764.84;;;-1.27;100.00
32747;BME280;19118;50.860;13.662;2023-04-08T22:04:18;97767.66;;;-1.42;100.00
32747;BME280;19118;50.860;13.662;2023-04-08T22:09:18;97766.22;;;-1.47;100.00
32747;BME280;19118;50.860;13.662;2023-04-08T22:14:19;97762.06;;;-1.49;100.00
32747;BME280;19118;50.860;13.662;2023-04-08T22:19:19;97757.31;;;-1.42;100.00
32747;BME280;19118;50.860;13.662;2023-04-08T22:24:20;97758.13;;;-1.55;100.00
32747;BME280;19118;50.860;13.662;2023-04-08T22:29:20;97753.56;;;-1.64;100.00
32747;BME280;19118;50.860;13.662;2023-04-08T22:34:20;97757.47;;;-1.71;100.00
32747;BME280;19118;50.860;13.662;2023-04-08T22:39:21;97751.47;;;-1.71;100.00
32747;BME280;19118;50.860;13.662;2023-04-08T22:44:21;97740.91;;;-1.81;100.00
32747;BME280;19118;50.860;13.662;2023-04-08T22:49:22;97747.53;;;-1.90;100.00
32747;BME280;19118;50.860;13.662;2023-04-08T22:54:22;97749.41;;;-1.92;100.00
32747;BME280;19118;50.860;13.662;2023-04-08T22:59:22;97755.06;;;-1.99;100.00
32747;BME280;19118;50.860;13.662;2023-04-08T23:04:23;97759.72;;;-2.05;100.00
32747;BME280;19118;50.860;13.662;2023-04-08T23:09:23;97761.19;;;-2.00;100.00
32747;BME280;19118;50.860;13.662;2023-04-08T23:14:25;97759.72;;;-2.05;100.00
32747;BME280;19118;50.860;13.662;2023-04-08T23:19:26;97762.03;;;-2.00;100.00
32747;BME280;19118;50.860;13.662;2023-04-08T23:24:26;97760.03;;;-2.09;100.00
32747;BME280;19118;50.860;13.662;2023-04-08T23:29:26;97767.81;;;-1.96;100.00
32747;BME280;19118;50.860;13.662;2023-04-08T23:34:27;97768.84;;;-2.12;100.00
32747;BME280;19118;50.860;13.662;2023-04-08T23:39:27;97765.69;;;-2.17;100.00
32747;BME280;19118;50.860;13.662;2023-04-08T23:44:27;97762.81;;;-2.12;100.00
32747;BME280;19118;50.860;13.662;2023-04-08T23:49:28;97767.78;;;-2.22;100.00
32747;BME280;19118;50.860;13.662;2023-04-08T23:54:29;97765.56;;;-2.28;100.00
32747;BME280;19118;50.860;13.662;2023-04-08T23:59:31;97761.97;;;-2.25;100.00
